Airfield :
LOGIN :

Register | Disclaimer

   EN    FR    IT 

 










Legend :    VFR   Marginal VFR   IFR   Intensive IFR   Very Intensive IFR
Visi :
Ceiling :
>= 8 km
>= 3000ft
5 to 8 km
1000 to 3000 ft
1500m to 5 km
500 to 1000 ft
800 to 1500m
200 to 500 ft
< 800m
< 200 ft
Symbols :   Thunderstorms  Fog  Heavy snow  Heavy precipitations  Wind > 20 kt
SIGMETs :     Misc.  Thunderstorms  Icing  Turbulence  Mountain Waves  Volcanic Ashes






- Airport Elevation : 65 ft
- IATA code : LLA


ESPA - Luleå

CURRENT METAR :
  • 251820Z 18003KT CAVOK 13/03 Q1006

EXPIRED METARs :
  • 251750Z VRB05KT CAVOK 13/04 Q1006
  • 251720Z 21007KT CAVOK 13/05 Q1006
  • 251650Z 19008KT 140V230 CAVOK 16/05 Q1006
  • 251620Z 09007KT CAVOK 17/04 Q1006
  • 251550Z 11007KT 080V140 CAVOK 19/04 Q1006

TAF TAF ESPA
Valid from the 25 at 18:00 until the 25 at 22:00 UTC


251730Z 2518/2522 11007KT CAVOK
PROB40 2521/2522 4000 -RA BR



MET'MAP, your aeronautical weather chart ! - Copyright ORBIFLY December 2007 - Disclaimer

ORBIFLY MET'MAP TEAM :

Programming & Development : Alexandra Zaïnal
Original concept : Baudouin d'Aumeries
Technical & hardware support : Manuel Goepfert
Assistance : Marc-Olivier Méhu

Contact : metmap@orbifly.com




SOURCES & CREDITS :

   NOAA